Terminal Aerodrome Forecast
Issued by NWS

Home | Current Version | Previous Version | Text Only | Print | Product List | Glossary On
Versions: 1 2 3 4 5 6 7 8 9 10 11 12 13 14 15 16 17 18 19 20 21 22 23 24 25 26 27 28 29 30 31 32 33 34 35 36 37 38
000
FTUS42 TJSJ 160702 AAA
TAFJSJ
TAF AMD
TJSJ 160702Z 1607/1706 VRB06KT P6SM VCSH SCT025 SCT050
      TEMPO 1607/1608 09010KT -SHRA BKN025
     FM161400 07016G23KT P6SM VCSH FEW025 SCT030 SCT040
     FM162200 09012KT P6SM VCSH SCT025 SCT030 BKN060=

USA.gov is the U.S. government's official web portal to all federal, state and local government web resources and services.